sensor_id;sensor_type;location;lat;lon;timestamp;P1;durP1;ratioP1;P2;durP2;ratioP2
8825;SDS011;4449;50.872;4.714;2023-04-25T00:00:54;9.23;;;4.50;;
8825;SDS011;4449;50.872;4.714;2023-04-25T00:03:21;9.03;;;4.03;;
8825;SDS011;4449;50.872;4.714;2023-04-25T00:05:50;8.37;;;3.87;;
8825;SDS011;4449;50.872;4.714;2023-04-25T00:08:19;9.03;;;4.33;;
8825;SDS011;4449;50.872;4.714;2023-04-25T00:10:47;8.03;;;3.33;;
8825;SDS011;4449;50.872;4.714;2023-04-25T00:13:15;13.37;;;4.67;;
8825;SDS011;4449;50.872;4.714;2023-04-25T00:15:44;10.03;;;4.23;;
8825;SDS011;4449;50.872;4.714;2023-04-25T00:18:13;8.47;;;5.17;;
8825;SDS011;4449;50.872;4.714;2023-04-25T00:20:41;12.60;;;4.37;;
8825;SDS011;4449;50.872;4.714;2023-04-25T00:23:12;9.33;;;4.43;;
8825;SDS011;4449;50.872;4.714;2023-04-25T00:25:44;9.77;;;4.17;;
8825;SDS011;4449;50.872;4.714;2023-04-25T00:28:12;13.50;;;4.70;;
8825;SDS011;4449;50.872;4.714;2023-04-25T00:30:40;13.23;;;4.37;;
8825;SDS011;4449;50.872;4.714;2023-04-25T00:33:08;13.90;;;4.83;;
8825;SDS011;4449;50.872;4.714;2023-04-25T00:35:36;11.57;;;4.90;;
8825;SDS011;4449;50.872;4.714;2023-04-25T00:38:04;10.47;;;4.57;;
8825;SDS011;4449;50.872;4.714;2023-04-25T00:40:31;13.07;;;4.37;;
8825;SDS011;4449;50.872;4.714;2023-04-25T00:43:01;12.95;;;5.70;;
8825;SDS011;4449;50.872;4.714;2023-04-25T00:45:28;14.03;;;4.53;;
8825;SDS011;4449;50.872;4.714;2023-04-25T00:47:56;11.37;;;4.23;;
8825;SDS011;4449;50.872;4.714;2023-04-25T00:50:24;10.73;;;4.17;;
8825;SDS011;4449;50.872;4.714;2023-04-25T00:52:52;11.73;;;4.43;;
8825;SDS011;4449;50.872;4.714;2023-04-25T00:55:20;13.20;;;4.63;;
8825;SDS011;4449;50.872;4.714;2023-04-25T00:57:48;12.60;;;4.53;;
8825;SDS011;4449;50.872;4.714;2023-04-25T01:00:20;20.33;;;4.63;;
8825;SDS011;4449;50.872;4.714;2023-04-25T01:02:48;12.40;;;4.43;;
8825;SDS011;4449;50.872;4.714;2023-04-25T01:05:16;11.67;;;5.30;;
8825;SDS011;4449;50.872;4.714;2023-04-25T01:07:44;11.17;;;5.03;;
8825;SDS011;4449;50.872;4.714;2023-04-25T01:10:12;10.23;;;4.13;;
8825;SDS011;4449;50.872;4.714;2023-04-25T01:12:42;10.67;;;4.93;;
8825;SDS011;4449;50.872;4.714;2023-04-25T01:15:10;13.43;;;4.50;;
8825;SDS011;4449;50.872;4.714;2023-04-25T01:17:39;10.63;;;4.23;;
8825;SDS011;4449;50.872;4.714;2023-04-25T01:20:09;16.97;;;5.23;;
8825;SDS011;4449;50.872;4.714;2023-04-25T01:22:43;13.83;;;4.73;;
8825;SDS011;4449;50.872;4.714;2023-04-25T01:25:11;14.70;;;4.87;;
8825;SDS011;4449;50.872;4.714;2023-04-25T01:27:39;18.60;;;5.40;;
8825;SDS011;4449;50.872;4.714;2023-04-25T01:30:07;10.90;;;5.07;;
8825;SDS011;4449;50.872;4.714;2023-04-25T01:32:35;15.77;;;4.80;;
8825;SDS011;4449;50.872;4.714;2023-04-25T01:35:05;7.67;;;4.03;;
8825;SDS011;4449;50.872;4.714;2023-04-25T01:37:35;11.27;;;5.67;;
8825;SDS011;4449;50.872;4.714;2023-04-25T01:40:05;13.37;;;4.47;;
8825;SDS011;4449;50.872;4.714;2023-04-25T01:42:33;11.73;;;4.50;;
8825;SDS011;4449;50.872;4.714;2023-04-25T01:45:00;14.83;;;4.23;;
8825;SDS011;4449;50.872;4.714;2023-04-25T01:47:28;15.27;;;4.60;;
8825;SDS011;4449;50.872;4.714;2023-04-25T01:49:56;7.23;;;4.30;;
8825;SDS011;4449;50.872;4.714;2023-04-25T01:52:24;18.10;;;4.00;;
8825;SDS011;4449;50.872;4.714;2023-04-25T01:54:52;13.50;;;4.57;;
8825;SDS011;4449;50.872;4.714;2023-04-25T01:57:22;11.10;;;4.40;;
8825;SDS011;4449;50.872;4.714;2023-04-25T01:59:50;12.50;;;4.67;;
8825;SDS011;4449;50.872;4.714;2023-04-25T02:02:19;15.43;;;4.60;;
8825;SDS011;4449;50.872;4.714;2023-04-25T02:04:46;13.63;;;4.23;;
8825;SDS011;4449;50.872;4.714;2023-04-25T02:07:14;8.77;;;4.47;;
8825;SDS011;4449;50.872;4.714;2023-04-25T02:09:42;13.67;;;4.37;;
8825;SDS011;4449;50.872;4.714;2023-04-25T02:12:10;14.03;;;3.60;;
8825;SDS011;4449;50.872;4.714;2023-04-25T02:14:39;17.47;;;4.80;;
8825;SDS011;4449;50.872;4.714;2023-04-25T02:17:07;12.20;;;4.57;;
8825;SDS011;4449;50.872;4.714;2023-04-25T02:19:34;9.27;;;4.23;;
8825;SDS011;4449;50.872;4.714;2023-04-25T02:22:02;16.90;;;4.53;;
8825;SDS011;4449;50.872;4.714;2023-04-25T02:24:30;9.90;;;3.70;;
8825;SDS011;4449;50.872;4.714;2023-04-25T02:26:59;14.17;;;4.30;;
8825;SDS011;4449;50.872;4.714;2023-04-25T02:29:27;12.83;;;3.63;;
8825;SDS011;4449;50.872;4.714;2023-04-25T02:31:56;12.00;;;3.80;;
8825;SDS011;4449;50.872;4.714;2023-04-25T02:34:24;14.67;;;4.03;;
8825;SDS011;4449;50.872;4.714;2023-04-25T02:36:52;10.77;;;3.40;;
8825;SDS011;4449;50.872;4.714;2023-04-25T02:39:20;13.47;;;4.03;;
8825;SDS011;4449;50.872;4.714;2023-04-25T02:41:50;11.63;;;3.80;;
8825;SDS011;4449;50.872;4.714;2023-04-25T02:44:18;13.10;;;4.10;;
8825;SDS011;4449;50.872;4.714;2023-04-25T02:46:46;13.30;;;3.80;;
8825;SDS011;4449;50.872;4.714;2023-04-25T02:49:15;11.73;;;4.07;;
8825;SDS011;4449;50.872;4.714;2023-04-25T02:51:43;14.13;;;4.83;;
8825;SDS011;4449;50.872;4.714;2023-04-25T02:54:10;12.65;;;4.90;;
8825;SDS011;4449;50.872;4.714;2023-04-25T02:56:38;13.45;;;5.13;;
8825;SDS011;4449;50.872;4.714;2023-04-25T02:59:06;15.10;;;4.90;;
8825;SDS011;4449;50.872;4.714;2023-04-25T03:01:34;12.80;;;4.53;;
8825;SDS011;4449;50.872;4.714;2023-04-25T03:04:01;16.50;;;4.97;;
8825;SDS011;4449;50.872;4.714;2023-04-25T03:06:31;11.13;;;3.83;;
8825;SDS011;4449;50.872;4.714;2023-04-25T03:08:59;16.00;;;5.17;;
8825;SDS011;4449;50.872;4.714;2023-04-25T03:11:26;20.63;;;4.33;;
8825;SDS011;4449;50.872;4.714;2023-04-25T03:13:54;10.00;;;3.90;;
8825;SDS011;4449;50.872;4.714;2023-04-25T03:16:22;10.57;;;3.97;;
8825;SDS011;4449;50.872;4.714;2023-04-25T03:18:49;9.80;;;4.40;;
8825;SDS011;4449;50.872;4.714;2023-04-25T03:21:17;13.00;;;4.30;;
8825;SDS011;4449;50.872;4.714;2023-04-25T03:23:46;9.07;;;4.20;;
8825;SDS011;4449;50.872;4.714;2023-04-25T03:26:14;9.27;;;3.93;;
8825;SDS011;4449;50.872;4.714;2023-04-25T03:28:42;10.60;;;3.77;;
8825;SDS011;4449;50.872;4.714;2023-04-25T03:31:10;8.70;;;5.07;;
8825;SDS011;4449;50.872;4.714;2023-04-25T03:33:38;11.80;;;4.40;;
8825;SDS011;4449;50.872;4.714;2023-04-25T03:36:06;13.57;;;4.10;;
8825;SDS011;4449;50.872;4.714;2023-04-25T03:38:34;19.67;;;5.10;;
8825;SDS011;4449;50.872;4.714;2023-04-25T03:41:03;18.73;;;4.20;;
8825;SDS011;4449;50.872;4.714;2023-04-25T03:43:31;16.10;;;4.20;;
8825;SDS011;4449;50.872;4.714;2023-04-25T03:45:59;15.30;;;5.20;;
8825;SDS011;4449;50.872;4.714;2023-04-25T03:48:27;12.23;;;4.33;;
8825;SDS011;4449;50.872;4.714;2023-04-25T03:50:54;13.20;;;4.40;;
8825;SDS011;4449;50.872;4.714;2023-04-25T03:53:22;10.00;;;4.03;;
8825;SDS011;4449;50.872;4.714;2023-04-25T03:55:50;10.47;;;3.90;;
8825;SDS011;4449;50.872;4.714;2023-04-25T03:58:19;12.27;;;3.77;;
8825;SDS011;4449;50.872;4.714;2023-04-25T04:00:48;16.60;;;3.70;;
8825;SDS011;4449;50.872;4.714;2023-04-25T04:03:16;6.17;;;3.47;;
8825;SDS011;4449;50.872;4.714;2023-04-25T04:05:43;10.30;;;3.73;;
8825;SDS011;4449;50.872;4.714;2023-04-25T04:08:11;8.30;;;3.37;;
8825;SDS011;4449;50.872;4.714;2023-04-25T04:10:39;14.87;;;4.23;;
8825;SDS011;4449;50.872;4.714;2023-04-25T04:13:07;14.60;;;4.40;;
8825;SDS011;4449;50.872;4.714;2023-04-25T04:15:36;17.77;;;3.80;;
8825;SDS011;4449;50.872;4.714;2023-04-25T04:18:04;13.43;;;3.97;;
8825;SDS011;4449;50.872;4.714;2023-04-25T04:20:31;8.87;;;3.47;;
8825;SDS011;4449;50.872;4.714;2023-04-25T04:22:59;9.03;;;3.27;;
8825;SDS011;4449;50.872;4.714;2023-04-25T04:25:28;9.13;;;3.30;;
8825;SDS011;4449;50.872;4.714;2023-04-25T04:27:55;12.17;;;3.60;;
8825;SDS011;4449;50.872;4.714;2023-04-25T04:30:24;11.17;;;3.90;;
8825;SDS011;4449;50.872;4.714;2023-04-25T04:32:56;14.13;;;3.80;;
8825;SDS011;4449;50.872;4.714;2023-04-25T04:35:24;10.77;;;4.10;;
8825;SDS011;4449;50.872;4.714;2023-04-25T04:37:51;12.75;;;3.83;;
8825;SDS011;4449;50.872;4.714;2023-04-25T04:40:19;8.47;;;3.73;;
8825;SDS011;4449;50.872;4.714;2023-04-25T04:42:47;10.73;;;3.47;;
8825;SDS011;4449;50.872;4.714;2023-04-25T04:45:15;12.43;;;3.20;;
8825;SDS011;4449;50.872;4.714;2023-04-25T04:47:43;14.03;;;3.77;;
8825;SDS011;4449;50.872;4.714;2023-04-25T04:50:13;8.57;;;3.43;;
8825;SDS011;4449;50.872;4.714;2023-04-25T04:52:41;9.37;;;3.50;;
8825;SDS011;4449;50.872;4.714;2023-04-25T04:55:09;7.47;;;3.27;;
8825;SDS011;4449;50.872;4.714;2023-04-25T04:57:37;7.70;;;3.63;;
8825;SDS011;4449;50.872;4.714;2023-04-25T05:00:05;8.77;;;3.13;;
8825;SDS011;4449;50.872;4.714;2023-04-25T05:02:36;8.27;;;3.60;;
8825;SDS011;4449;50.872;4.714;2023-04-25T05:05:04;12.50;;;4.27;;
8825;SDS011;4449;50.872;4.714;2023-04-25T05:07:34;15.30;;;4.30;;
8825;SDS011;4449;50.872;4.714;2023-04-25T05:10:02;11.67;;;3.77;;
8825;SDS011;4449;50.872;4.714;2023-04-25T05:12:30;10.67;;;3.97;;
8825;SDS011;4449;50.872;4.714;2023-04-25T05:14:58;11.63;;;2.97;;
8825;SDS011;4449;50.872;4.714;2023-04-25T05:17:25;9.90;;;4.00;;
8825;SDS011;4449;50.872;4.714;2023-04-25T05:19:53;9.37;;;4.10;;
8825;SDS011;4449;50.872;4.714;2023-04-25T05:22:21;9.67;;;3.90;;
8825;SDS011;4449;50.872;4.714;2023-04-25T05:24:50;9.43;;;3.80;;
8825;SDS011;4449;50.872;4.714;2023-04-25T05:27:18;14.80;;;3.73;;
8825;SDS011;4449;50.872;4.714;2023-04-25T05:29:46;9.57;;;4.17;;
8825;SDS011;4449;50.872;4.714;2023-04-25T05:32:14;13.50;;;3.70;;
8825;SDS011;4449;50.872;4.714;2023-04-25T05:34:41;12.90;;;3.93;;
8825;SDS011;4449;50.872;4.714;2023-04-25T05:37:09;10.57;;;3.90;;
8825;SDS011;4449;50.872;4.714;2023-04-25T05:39:37;8.47;;;3.83;;
8825;SDS011;4449;50.872;4.714;2023-04-25T05:42:06;12.63;;;4.03;;
8825;SDS011;4449;50.872;4.714;2023-04-25T05:44:34;15.63;;;3.97;;
8825;SDS011;4449;50.872;4.714;2023-04-25T05:47:02;18.80;;;4.70;;
8825;SDS011;4449;50.872;4.714;2023-04-25T05:49:30;8.87;;;4.10;;
8825;SDS011;4449;50.872;4.714;2023-04-25T05:51:58;9.30;;;3.67;;
8825;SDS011;4449;50.872;4.714;2023-04-25T05:54:26;9.43;;;4.27;;
8825;SDS011;4449;50.872;4.714;2023-04-25T05:56:53;14.87;;;4.17;;
8825;SDS011;4449;50.872;4.714;2023-04-25T05:59:23;11.23;;;4.30;;
8825;SDS011;4449;50.872;4.714;2023-04-25T06:01:50;13.27;;;4.67;;
8825;SDS011;4449;50.872;4.714;2023-04-25T06:04:18;17.93;;;5.20;;
8825;SDS011;4449;50.872;4.714;2023-04-25T06:06:46;21.67;;;6.13;;
8825;SDS011;4449;50.872;4.714;2023-04-25T06:09:13;20.37;;;5.13;;
8825;SDS011;4449;50.872;4.714;2023-04-25T06:11:41;14.90;;;4.47;;
8825;SDS011;4449;50.872;4.714;2023-04-25T06:14:09;16.73;;;4.53;;
8825;SDS011;4449;50.872;4.714;2023-04-25T06:16:38;13.17;;;5.03;;
8825;SDS011;4449;50.872;4.714;2023-04-25T06:19:06;15.77;;;5.07;;
8825;SDS011;4449;50.872;4.714;2023-04-25T06:21:33;14.93;;;5.20;;
8825;SDS011;4449;50.872;4.714;2023-04-25T06:24:01;19.20;;;4.90;;
8825;SDS011;4449;50.872;4.714;2023-04-25T06:26:29;17.23;;;5.00;;
8825;SDS011;4449;50.872;4.714;2023-04-25T06:28:57;13.67;;;6.00;;
8825;SDS011;4449;50.872;4.714;2023-04-25T06:31:25;16.60;;;4.53;;
8825;SDS011;4449;50.872;4.714;2023-04-25T06:33:55;16.13;;;5.07;;
8825;SDS011;4449;50.872;4.714;2023-04-25T06:36:23;13.40;;;4.57;;
8825;SDS011;4449;50.872;4.714;2023-04-25T06:38:53;16.90;;;4.97;;
8825;SDS011;4449;50.872;4.714;2023-04-25T06:41:20;12.27;;;4.53;;
8825;SDS011;4449;50.872;4.714;2023-04-25T06:43:48;13.23;;;4.47;;
8825;SDS011;4449;50.872;4.714;2023-04-25T06:46:16;12.80;;;4.60;;
8825;SDS011;4449;50.872;4.714;2023-04-25T06:48:44;9.13;;;5.27;;
8825;SDS011;4449;50.872;4.714;2023-04-25T06:51:13;13.10;;;5.10;;
8825;SDS011;4449;50.872;4.714;2023-04-25T06:53:41;14.93;;;4.43;;
8825;SDS011;4449;50.872;4.714;2023-04-25T06:56:09;10.70;;;4.50;;
8825;SDS011;4449;50.872;4.714;2023-04-25T06:58:36;14.87;;;4.30;;
8825;SDS011;4449;50.872;4.714;2023-04-25T07:01:04;13.83;;;4.80;;
8825;SDS011;4449;50.872;4.714;2023-04-25T07:03:32;13.93;;;3.93;;
8825;SDS011;4449;50.872;4.714;2023-04-25T07:06:00;12.07;;;4.37;;
8825;SDS011;4449;50.872;4.714;2023-04-25T07:08:29;8.27;;;4.47;;
8825;SDS011;4449;50.872;4.714;2023-04-25T07:10:57;11.50;;;5.57;;
8825;SDS011;4449;50.872;4.714;2023-04-25T07:13:25;11.53;;;4.33;;
8825;SDS011;4449;50.872;4.714;2023-04-25T07:15:53;12.77;;;4.83;;
8825;SDS011;4449;50.872;4.714;2023-04-25T07:18:21;12.60;;;4.33;;
8825;SDS011;4449;50.872;4.714;2023-04-25T07:20:49;13.67;;;4.90;;
8825;SDS011;4449;50.872;4.714;2023-04-25T07:23:16;12.60;;;4.47;;
8825;SDS011;4449;50.872;4.714;2023-04-25T07:25:46;16.13;;;4.03;;
8825;SDS011;4449;50.872;4.714;2023-04-25T07:28:14;13.37;;;4.77;;
8825;SDS011;4449;50.872;4.714;2023-04-25T07:30:41;10.77;;;4.23;;
8825;SDS011;4449;50.872;4.714;2023-04-25T07:33:09;13.70;;;4.20;;
8825;SDS011;4449;50.872;4.714;2023-04-25T07:35:37;9.67;;;3.87;;
8825;SDS011;4449;50.872;4.714;2023-04-25T07:38:05;11.27;;;4.10;;
8825;SDS011;4449;50.872;4.714;2023-04-25T07:40:33;11.50;;;4.53;;
8825;SDS011;4449;50.872;4.714;2023-04-25T07:55:31;14.57;;;4.70;;
8825;SDS011;4449;50.872;4.714;2023-04-25T07:57:59;10.67;;;3.67;;
8825;SDS011;4449;50.872;4.714;2023-04-25T08:00:27;11.83;;;3.60;;
8825;SDS011;4449;50.872;4.714;2023-04-25T08:02:54;12.23;;;3.50;;
8825;SDS011;4449;50.872;4.714;2023-04-25T08:05:22;5.70;;;3.17;;
8825;SDS011;4449;50.872;4.714;2023-04-25T08:07:50;8.43;;;3.67;;
8825;SDS011;4449;50.872;4.714;2023-04-25T08:10:18;22.03;;;4.17;;
8825;SDS011;4449;50.872;4.714;2023-04-25T08:12:52;12.43;;;4.30;;
8825;SDS011;4449;50.872;4.714;2023-04-25T08:15:20;6.37;;;3.47;;
8825;SDS011;4449;50.872;4.714;2023-04-25T08:17:48;11.03;;;4.00;;
8825;SDS011;4449;50.872;4.714;2023-04-25T08:20:16;7.70;;;3.27;;
8825;SDS011;4449;50.872;4.714;2023-04-25T08:22:43;7.77;;;3.40;;
8825;SDS011;4449;50.872;4.714;2023-04-25T08:25:11;15.87;;;4.20;;
8825;SDS011;4449;50.872;4.714;2023-04-25T08:27:39;11.70;;;3.50;;
8825;SDS011;4449;50.872;4.714;2023-04-25T08:30:09;11.50;;;4.13;;
8825;SDS011;4449;50.872;4.714;2023-04-25T08:32:36;10.60;;;3.40;;
8825;SDS011;4449;50.872;4.714;2023-04-25T08:35:04;8.50;;;2.60;;
8825;SDS011;4449;50.872;4.714;2023-04-25T08:37:32;10.93;;;3.20;;
8825;SDS011;4449;50.872;4.714;2023-04-25T08:40:01;10.60;;;3.03;;
8825;SDS011;4449;50.872;4.714;2023-04-25T08:42:33;26.93;;;4.80;;
8825;SDS011;4449;50.872;4.714;2023-04-25T08:45:02;26.63;;;5.03;;
8825;SDS011;4449;50.872;4.714;2023-04-25T08:47:31;8.57;;;2.97;;
8825;SDS011;4449;50.872;4.714;2023-04-25T08:50:02;11.17;;;3.23;;
8825;SDS011;4449;50.872;4.714;2023-04-25T08:52:32;6.60;;;2.70;;
8825;SDS011;4449;50.872;4.714;2023-04-25T08:55:03;5.27;;;2.90;;
8825;SDS011;4449;50.872;4.714;2023-04-25T08:57:32;8.27;;;2.63;;
8825;SDS011;4449;50.872;4.714;2023-04-25T09:00:01;5.63;;;3.00;;
8825;SDS011;4449;50.872;4.714;2023-04-25T09:02:32;12.03;;;2.67;;
8825;SDS011;4449;50.872;4.714;2023-04-25T09:05:01;10.00;;;2.80;;
8825;SDS011;4449;50.872;4.714;2023-04-25T09:07:30;3.37;;;2.23;;
8825;SDS011;4449;50.872;4.714;2023-04-25T09:09:58;12.10;;;3.53;;
8825;SDS011;4449;50.872;4.714;2023-04-25T09:12:28;12.43;;;3.00;;
8825;SDS011;4449;50.872;4.714;2023-04-25T09:15:04;7.33;;;2.53;;
8825;SDS011;4449;50.872;4.714;2023-04-25T09:17:37;9.00;;;2.83;;
8825;SDS011;4449;50.872;4.714;2023-04-25T09:20:10;9.13;;;3.30;;
8825;SDS011;4449;50.872;4.714;2023-04-25T09:22:38;9.90;;;3.27;;
8825;SDS011;4449;50.872;4.714;2023-04-25T09:25:08;10.20;;;3.00;;
8825;SDS011;4449;50.872;4.714;2023-04-25T09:27:36;9.13;;;3.30;;
8825;SDS011;4449;50.872;4.714;2023-04-25T09:30:04;5.97;;;2.67;;
8825;SDS011;4449;50.872;4.714;2023-04-25T09:32:32;19.03;;;3.30;;
8825;SDS011;4449;50.872;4.714;2023-04-25T09:35:01;4.80;;;2.47;;
8825;SDS011;4449;50.872;4.714;2023-04-25T09:37:29;5.07;;;2.50;;
8825;SDS011;4449;50.872;4.714;2023-04-25T09:39:58;4.37;;;3.40;;
8825;SDS011;4449;50.872;4.714;2023-04-25T10:41:05;4.30;;;1.43;;
8825;SDS011;4449;50.872;4.714;2023-04-25T10:43:34;1.70;;;1.60;;
8825;SDS011;4449;50.872;4.714;2023-04-25T10:46:03;4.77;;;1.70;;
8825;SDS011;4449;50.872;4.714;2023-04-25T10:48:45;3.93;;;1.30;;
8825;SDS011;4449;50.872;4.714;2023-04-25T10:51:18;1.73;;;1.60;;
8825;SDS011;4449;50.872;4.714;2023-04-25T10:53:47;2.87;;;1.77;;
8825;SDS011;4449;50.872;4.714;2023-04-25T10:56:27;2.83;;;1.30;;
8825;SDS011;4449;50.872;4.714;2023-04-25T10:59:05;5.17;;;2.90;;
8825;SDS011;4449;50.872;4.714;2023-04-25T11:01:37;2.80;;;1.63;;
8825;SDS011;4449;50.872;4.714;2023-04-25T11:04:05;4.37;;;1.43;;
8825;SDS011;4449;50.872;4.714;2023-04-25T11:06:44;5.87;;;2.37;;
8825;SDS011;4449;50.872;4.714;2023-04-25T11:09:14;2.90;;;1.57;;
8825;SDS011;4449;50.872;4.714;2023-04-25T11:11:48;4.00;;;1.67;;
8825;SDS011;4449;50.872;4.714;2023-04-25T11:14:20;3.67;;;1.70;;
8825;SDS011;4449;50.872;4.714;2023-04-25T11:16:52;3.70;;;2.10;;
8825;SDS011;4449;50.872;4.714;2023-04-25T11:19:21;5.33;;;2.07;;
8825;SDS011;4449;50.872;4.714;2023-04-25T11:21:48;3.97;;;1.90;;
8825;SDS011;4449;50.872;4.714;2023-04-25T11:24:17;4.00;;;2.03;;
8825;SDS011;4449;50.872;4.714;2023-04-25T11:26:47;2.97;;;1.93;;
8825;SDS011;4449;50.872;4.714;2023-04-25T11:29:15;3.90;;;1.97;;
8825;SDS011;4449;50.872;4.714;2023-04-25T11:31:43;4.47;;;2.00;;
8825;SDS011;4449;50.872;4.714;2023-04-25T11:34:12;4.30;;;2.23;;
8825;SDS011;4449;50.872;4.714;2023-04-25T11:36:44;1.83;;;1.67;;
8825;SDS011;4449;50.872;4.714;2023-04-25T11:39:12;4.33;;;2.17;;
8825;SDS011;4449;50.872;4.714;2023-04-25T11:41:41;4.13;;;2.30;;
8825;SDS011;4449;50.872;4.714;2023-04-25T11:44:10;9.27;;;2.47;;
8825;SDS011;4449;50.872;4.714;2023-04-25T11:46:40;7.20;;;2.10;;
8825;SDS011;4449;50.872;4.714;2023-04-25T11:49:08;2.20;;;1.87;;
8825;SDS011;4449;50.872;4.714;2023-04-25T11:51:39;4.73;;;1.87;;
8825;SDS011;4449;50.872;4.714;2023-04-25T11:54:07;12.27;;;3.03;;
8825;SDS011;4449;50.872;4.714;2023-04-25T11:56:35;3.67;;;2.10;;
8825;SDS011;4449;50.872;4.714;2023-04-25T11:59:03;4.83;;;1.73;;
8825;SDS011;4449;50.872;4.714;2023-04-25T12:01:33;4.80;;;2.07;;
8825;SDS011;4449;50.872;4.714;2023-04-25T12:04:11;3.67;;;2.60;;
8825;SDS011;4449;50.872;4.714;2023-04-25T12:06:39;7.40;;;2.60;;
8825;SDS011;4449;50.872;4.714;2023-04-25T12:09:08;3.73;;;2.97;;
8825;SDS011;4449;50.872;4.714;2023-04-25T12:11:42;9.37;;;3.03;;
8825;SDS011;4449;50.872;4.714;2023-04-25T12:14:10;6.93;;;1.73;;
8825;SDS011;4449;50.872;4.714;2023-04-25T12:16:43;3.57;;;2.07;;
8825;SDS011;4449;50.872;4.714;2023-04-25T12:19:13;4.43;;;1.73;;
8825;SDS011;4449;50.872;4.714;2023-04-25T12:21:41;4.17;;;2.03;;
8825;SDS011;4449;50.872;4.714;2023-04-25T12:24:09;3.13;;;2.10;;
8825;SDS011;4449;50.872;4.714;2023-04-25T12:26:48;3.20;;;1.73;;
8825;SDS011;4449;50.872;4.714;2023-04-25T12:29:17;4.30;;;1.67;;
8825;SDS011;4449;50.872;4.714;2023-04-25T12:31:46;3.17;;;2.00;;
8825;SDS011;4449;50.872;4.714;2023-04-25T12:34:14;4.33;;;1.70;;
8825;SDS011;4449;50.872;4.714;2023-04-25T12:36:42;5.23;;;2.10;;
8825;SDS011;4449;50.872;4.714;2023-04-25T12:39:20;10.87;;;2.50;;
8825;SDS011;4449;50.872;4.714;2023-04-25T12:41:48;3.50;;;2.20;;
8825;SDS011;4449;50.872;4.714;2023-04-25T12:44:17;6.40;;;2.13;;
8825;SDS011;4449;50.872;4.714;2023-04-25T12:46:47;4.30;;;2.00;;
8825;SDS011;4449;50.872;4.714;2023-04-25T12:49:15;4.43;;;1.90;;
8825;SDS011;4449;50.872;4.714;2023-04-25T12:51:43;3.80;;;2.00;;
8825;SDS011;4449;50.872;4.714;2023-04-25T12:54:10;2.77;;;1.93;;
8825;SDS011;4449;50.872;4.714;2023-04-25T12:56:40;4.80;;;1.70;;
8825;SDS011;4449;50.872;4.714;2023-04-25T12:59:08;3.70;;;1.53;;
8825;SDS011;4449;50.872;4.714;2023-04-25T13:01:36;2.67;;;1.33;;
8825;SDS011;4449;50.872;4.714;2023-04-25T13:04:05;4.87;;;1.60;;
8825;SDS011;4449;50.872;4.714;2023-04-25T13:06:33;3.13;;;2.27;;
8825;SDS011;4449;50.872;4.714;2023-04-25T13:09:01;5.07;;;1.80;;
8825;SDS011;4449;50.872;4.714;2023-04-25T13:11:29;4.13;;;1.60;;
8825;SDS011;4449;50.872;4.714;2023-04-25T13:13:57;5.87;;;1.80;;
8825;SDS011;4449;50.872;4.714;2023-04-25T13:16:25;1.87;;;1.40;;
8825;SDS011;4449;50.872;4.714;2023-04-25T13:18:53;2.13;;;1.93;;
8825;SDS011;4449;50.872;4.714;2023-04-25T13:21:23;2.67;;;1.40;;
8825;SDS011;4449;50.872;4.714;2023-04-25T13:23:50;2.03;;;1.40;;
8825;SDS011;4449;50.872;4.714;2023-04-25T13:26:19;2.57;;;2.10;;
8825;SDS011;4449;50.872;4.714;2023-04-25T13:28:47;4.00;;;1.93;;
8825;SDS011;4449;50.872;4.714;2023-04-25T13:31:15;1.83;;;1.60;;
8825;SDS011;4449;50.872;4.714;2023-04-25T13:33:43;2.10;;;1.40;;
8825;SDS011;4449;50.872;4.714;2023-04-25T13:36:11;3.23;;;1.60;;
8825;SDS011;4449;50.872;4.714;2023-04-25T13:38:40;1.70;;;1.43;;
8825;SDS011;4449;50.872;4.714;2023-04-25T13:41:10;4.77;;;1.60;;
8825;SDS011;4449;50.872;4.714;2023-04-25T13:43:43;1.43;;;1.37;;
8825;SDS011;4449;50.872;4.714;2023-04-25T13:46:10;2.47;;;1.70;;
8825;SDS011;4449;50.872;4.714;2023-04-25T13:48:38;5.93;;;2.00;;
8825;SDS011;4449;50.872;4.714;2023-04-25T13:51:15;1.67;;;1.57;;
8825;SDS011;4449;50.872;4.714;2023-04-25T13:53:44;4.00;;;1.60;;
8825;SDS011;4449;50.872;4.714;2023-04-25T13:56:12;1.87;;;1.53;;
8825;SDS011;4449;50.872;4.714;2023-04-25T13:58:40;4.73;;;2.07;;
8825;SDS011;4449;50.872;4.714;2023-04-25T14:01:08;1.80;;;1.70;;
8825;SDS011;4449;50.872;4.714;2023-04-25T14:03:36;2.20;;;1.73;;
8825;SDS011;4449;50.872;4.714;2023-04-25T14:06:03;2.17;;;1.60;;
8825;SDS011;4449;50.872;4.714;2023-04-25T14:08:31;7.17;;;1.67;;
8825;SDS011;4449;50.872;4.714;2023-04-25T14:11:01;3.07;;;1.97;;
8825;SDS011;4449;50.872;4.714;2023-04-25T14:13:30;4.23;;;1.70;;
8825;SDS011;4449;50.872;4.714;2023-04-25T14:16:00;2.10;;;1.73;;
8825;SDS011;4449;50.872;4.714;2023-04-25T14:18:28;3.87;;;1.40;;
8825;SDS011;4449;50.872;4.714;2023-04-25T14:20:59;6.97;;;2.07;;
8825;SDS011;4449;50.872;4.714;2023-04-25T14:23:30;2.20;;;1.73;;
8825;SDS011;4449;50.872;4.714;2023-04-25T14:25:58;4.63;;;1.80;;
8825;SDS011;4449;50.872;4.714;2023-04-25T14:28:27;7.93;;;1.90;;
8825;SDS011;4449;50.872;4.714;2023-04-25T14:30:55;2.03;;;1.63;;
8825;SDS011;4449;50.872;4.714;2023-04-25T14:33:23;4.00;;;1.90;;
8825;SDS011;4449;50.872;4.714;2023-04-25T14:35:51;2.77;;;1.70;;
8825;SDS011;4449;50.872;4.714;2023-04-25T14:38:19;2.70;;;1.60;;
8825;SDS011;4449;50.872;4.714;2023-04-25T14:40:50;3.33;;;1.60;;
8825;SDS011;4449;50.872;4.714;2023-04-25T14:43:19;1.70;;;1.60;;
8825;SDS011;4449;50.872;4.714;2023-04-25T14:45:48;3.40;;;1.70;;
8825;SDS011;4449;50.872;4.714;2023-04-25T14:48:16;5.47;;;1.60;;
8825;SDS011;4449;50.872;4.714;2023-04-25T14:50:45;1.53;;;1.43;;
8825;SDS011;4449;50.872;4.714;2023-04-25T14:53:12;3.70;;;1.37;;
8825;SDS011;4449;50.872;4.714;2023-04-25T14:55:40;2.57;;;1.63;;
8825;SDS011;4449;50.872;4.714;2023-04-25T14:58:08;1.50;;;1.40;;
8825;SDS011;4449;50.872;4.714;2023-04-25T15:00:36;3.43;;;1.40;;
8825;SDS011;4449;50.872;4.714;2023-04-25T15:03:05;1.40;;;1.30;;
8825;SDS011;4449;50.872;4.714;2023-04-25T15:05:34;6.50;;;1.87;;
8825;SDS011;4449;50.872;4.714;2023-04-25T15:08:02;2.17;;;2.00;;
8825;SDS011;4449;50.872;4.714;2023-04-25T15:10:30;2.13;;;1.63;;
8825;SDS011;4449;50.872;4.714;2023-04-25T15:12:57;1.50;;;1.50;;
8825;SDS011;4449;50.872;4.714;2023-04-25T15:15:25;4.30;;;1.50;;
8825;SDS011;4449;50.872;4.714;2023-04-25T15:17:53;2.90;;;1.77;;
8825;SDS011;4449;50.872;4.714;2023-04-25T15:20:23;3.60;;;1.67;;
8825;SDS011;4449;50.872;4.714;2023-04-25T15:22:51;3.50;;;1.50;;
8825;SDS011;4449;50.872;4.714;2023-04-25T15:25:19;4.17;;;1.80;;
8825;SDS011;4449;50.872;4.714;2023-04-25T15:27:47;3.10;;;1.93;;
8825;SDS011;4449;50.872;4.714;2023-04-25T15:30:18;3.90;;;1.57;;
8825;SDS011;4449;50.872;4.714;2023-04-25T15:32:46;1.60;;;1.50;;
8825;SDS011;4449;50.872;4.714;2023-04-25T15:35:14;1.93;;;1.70;;
8825;SDS011;4449;50.872;4.714;2023-04-25T15:37:43;5.10;;;1.57;;
8825;SDS011;4449;50.872;4.714;2023-04-25T15:40:11;1.40;;;1.30;;
8825;SDS011;4449;50.872;4.714;2023-04-25T15:42:40;2.43;;;1.33;;
8825;SDS011;4449;50.872;4.714;2023-04-25T15:45:09;2.77;;;1.23;;
8825;SDS011;4449;50.872;4.714;2023-04-25T15:47:38;2.00;;;1.40;;
8825;SDS011;4449;50.872;4.714;2023-04-25T15:50:08;3.43;;;1.63;;
8825;SDS011;4449;50.872;4.714;2023-04-25T15:52:37;3.70;;;2.10;;
8825;SDS011;4449;50.872;4.714;2023-04-25T15:55:07;3.60;;;1.77;;
8825;SDS011;4449;50.872;4.714;2023-04-25T15:57:35;2.97;;;1.90;;
8825;SDS011;4449;50.872;4.714;2023-04-25T16:00:03;5.27;;;2.03;;
8825;SDS011;4449;50.872;4.714;2023-04-25T16:02:35;4.27;;;1.73;;
8825;SDS011;4449;50.872;4.714;2023-04-25T16:05:03;2.97;;;1.57;;
8825;SDS011;4449;50.872;4.714;2023-04-25T16:07:31;2.90;;;1.73;;
8825;SDS011;4449;50.872;4.714;2023-04-25T16:09:59;5.27;;;1.40;;
8825;SDS011;4449;50.872;4.714;2023-04-25T16:12:28;2.07;;;1.33;;
8825;SDS011;4449;50.872;4.714;2023-04-25T16:14:56;2.03;;;1.23;;
8825;SDS011;4449;50.872;4.714;2023-04-25T16:17:24;2.27;;;1.53;;
8825;SDS011;4449;50.872;4.714;2023-04-25T16:19:54;4.50;;;1.60;;
8825;SDS011;4449;50.872;4.714;2023-04-25T16:22:23;2.47;;;1.57;;
8825;SDS011;4449;50.872;4.714;2023-04-25T16:24:51;3.73;;;1.67;;
8825;SDS011;4449;50.872;4.714;2023-04-25T16:27:19;4.73;;;1.93;;
8825;SDS011;4449;50.872;4.714;2023-04-25T16:29:48;2.47;;;1.43;;